createdAt,value
2018-04-18T00:01:53.763Z,6.33
2018-04-18T00:04:28.594Z,5.07
2018-04-18T00:07:03.627Z,5.87
2018-04-18T00:12:20.053Z,5.30
2018-04-18T00:14:56.055Z,5.77
2018-04-18T00:17:31.551Z,5.63
2018-04-18T00:20:06.995Z,4.87
2018-04-18T00:22:42.850Z,4.80
2018-04-18T00:25:17.822Z,6.20
2018-04-18T00:27:52.722Z,5.40
2018-04-18T00:30:27.897Z,4.73
2018-04-18T00:33:02.691Z,4.53
2018-04-18T00:35:37.928Z,4.37
2018-04-18T00:38:13.612Z,5.50
2018-04-18T00:40:49.059Z,4.50
2018-04-18T00:43:25.183Z,4.73
2018-04-18T00:46:00.627Z,4.10
2018-04-18T00:48:35.665Z,5.83
2018-04-18T00:51:10.900Z,4.70
2018-04-18T00:53:45.941Z,4.17
2018-04-18T00:56:20.869Z,4.07
2018-04-18T00:58:56.216Z,5.70
2018-04-18T01:01:32.000Z,4.80
2018-04-18T01:04:08.128Z,4.90
2018-04-18T01:06:43.366Z,4.60
2018-04-18T01:09:18.812Z,5.00
2018-04-18T01:11:54.255Z,4.00
2018-04-18T01:14:29.437Z,5.63
2018-04-18T01:17:05.145Z,3.57
2018-04-18T01:19:40.387Z,3.90
2018-04-18T01:22:15.831Z,3.97
2018-04-18T01:24:51.208Z,4.47
2018-04-18T01:27:26.658Z,4.07
2018-04-18T01:30:02.305Z,4.33
2018-04-18T01:32:37.201Z,4.70
2018-04-18T01:35:13.462Z,4.10
2018-04-18T01:37:48.908Z,4.40
2018-04-18T01:40:23.942Z,4.90
2018-04-18T01:42:59.120Z,4.80
2018-04-18T01:45:34.425Z,3.40
2018-04-18T01:48:09.664Z,5.60
2018-04-18T01:50:45.010Z,4.20
2018-04-18T01:53:19.938Z,5.87
2018-04-18T01:55:54.978Z,4.30
2018-04-18T01:58:29.801Z,4.77
2018-04-18T02:01:05.248Z,4.40
2018-04-18T02:03:41.104Z,5.20
2018-04-18T02:06:16.869Z,4.70
2018-04-18T02:08:52.092Z,5.33
2018-04-18T02:11:27.950Z,4.73
2018-04-18T02:14:02.982Z,4.37
2018-04-18T02:16:37.817Z,4.17
2018-04-18T02:19:12.847Z,3.47
2018-04-18T02:21:48.292Z,3.63
2018-04-18T02:24:23.636Z,3.67
2018-04-18T02:26:58.463Z,3.80
2018-04-18T02:29:33.501Z,2.97
2018-04-18T02:32:08.969Z,3.47
2018-04-18T02:34:44.388Z,4.70
2018-04-18T02:37:20.243Z,3.90
2018-04-18T02:39:55.686Z,3.50
2018-04-18T02:42:31.745Z,4.10
2018-04-18T02:45:14.152Z,4.20
2018-04-18T02:47:49.803Z,4.30
2018-04-18T02:50:24.837Z,3.83
2018-04-18T02:52:59.668Z,4.20
2018-04-18T02:55:34.910Z,4.30
2018-04-18T02:58:09.738Z,4.03
2018-04-18T03:00:44.779Z,3.63
2018-04-18T03:03:20.149Z,4.87
2018-04-18T03:05:55.051Z,4.20
2018-04-18T03:08:29.878Z,3.90
2018-04-18T03:11:05.017Z,4.30
2018-04-18T03:13:39.949Z,4.80
2018-04-18T03:16:14.884Z,4.73
2018-04-18T03:18:49.919Z,4.10
2018-04-18T03:21:25.155Z,4.67
2018-04-18T03:24:00.815Z,3.80
2018-04-18T03:26:35.454Z,3.57
2018-04-18T03:29:10.883Z,4.10
2018-04-18T03:31:46.116Z,4.50
2018-04-18T03:34:21.768Z,4.90
2018-04-18T03:36:56.600Z,4.67
2018-04-18T03:39:32.051Z,3.83
2018-04-18T03:42:09.036Z,4.17
2018-04-18T03:44:44.365Z,4.90
2018-04-18T03:47:21.593Z,4.00
2018-04-18T03:49:57.097Z,4.17
2018-04-18T03:52:32.759Z,3.50
2018-04-18T03:55:07.786Z,4.20
2018-04-18T03:57:42.715Z,5.40
2018-04-18T04:00:17.752Z,4.90
2018-04-18T04:02:53.030Z,4.53
2018-04-18T04:05:28.131Z,3.90
2018-04-18T04:08:03.169Z,3.70
2018-04-18T04:10:38.812Z,5.10
2018-04-18T04:13:13.862Z,6.17
2018-04-18T04:15:48.885Z,4.40
2018-04-18T04:18:35.594Z,4.87
2018-04-18T04:21:22.626Z,4.50
2018-04-18T04:24:09.828Z,4.30
2018-04-18T04:26:44.967Z,4.40
2018-04-18T04:29:20.004Z,4.20
2018-04-18T04:31:55.242Z,4.60
2018-04-18T04:34:30.686Z,6.20
2018-04-18T04:37:05.772Z,3.90
2018-04-18T04:39:40.757Z,4.67
2018-04-18T04:42:15.997Z,4.50
2018-04-18T04:44:52.300Z,4.90
2018-04-18T04:47:27.092Z,4.37
2018-04-18T04:50:02.740Z,3.87
2018-04-18T04:52:37.775Z,5.83
2018-04-18T04:55:13.015Z,4.47
2018-04-18T04:57:48.062Z,4.70
2018-04-18T05:00:23.700Z,5.00
2018-04-18T05:02:58.735Z,4.60
2018-04-18T05:05:34.625Z,4.90
2018-04-18T05:08:10.135Z,5.20
2018-04-18T05:10:46.142Z,4.10
2018-04-18T05:13:21.339Z,5.27
2018-04-18T05:15:56.415Z,6.63
2018-04-18T05:18:32.230Z,6.80
2018-04-18T05:21:07.271Z,5.57
2018-04-18T05:23:43.017Z,5.13
2018-04-18T05:26:18.863Z,5.67
2018-04-18T05:28:54.210Z,4.90
2018-04-18T05:31:29.450Z,5.30
2018-04-18T05:34:04.381Z,5.10
2018-04-18T05:36:39.422Z,5.77
2018-04-18T05:39:14.249Z,5.93
2018-04-18T05:41:49.284Z,7.00
2018-04-18T05:44:24.139Z,5.60
2018-04-18T05:46:59.763Z,6.60
2018-04-18T05:49:35.003Z,6.73
2018-04-18T05:52:10.754Z,7.13
2018-04-18T05:54:45.991Z,6.40
2018-04-18T05:57:21.303Z,6.30
2018-04-18T05:59:56.723Z,6.40
2018-04-18T06:02:32.027Z,5.80
2018-04-18T06:05:07.055Z,6.90
2018-04-18T06:07:42.922Z,5.47
2018-04-18T06:10:20.009Z,5.67
2018-04-18T06:12:55.388Z,5.70
2018-04-18T06:15:30.886Z,6.30
2018-04-18T06:18:06.330Z,7.07
2018-04-18T06:20:41.168Z,6.40
2018-04-18T06:23:16.400Z,6.53
2018-04-18T06:25:51.658Z,8.20
2018-04-18T06:28:26.672Z,6.63
2018-04-18T06:31:02.527Z,9.67
2018-04-18T06:33:37.777Z,8.60
2018-04-18T06:36:12.598Z,7.33
2018-04-18T06:38:47.839Z,7.87
2018-04-18T06:41:23.488Z,7.43
2018-04-18T06:43:58.731Z,7.40
2018-04-18T06:46:34.578Z,8.37
2018-04-18T06:49:10.229Z,7.97
2018-04-18T06:51:45.414Z,7.47
2018-04-18T06:54:20.914Z,9.10
2018-04-18T06:56:55.949Z,8.57
2018-04-18T06:59:31.701Z,8.63
2018-04-18T07:02:07.146Z,10.10
2018-04-18T07:04:42.386Z,8.20
2018-04-18T07:07:18.035Z,8.77
2018-04-18T07:09:53.073Z,9.63
2018-04-18T07:12:27.797Z,7.37
2018-04-18T07:15:03.242Z,9.53
2018-04-18T07:17:38.288Z,9.03
2018-04-18T07:20:13.740Z,11.03
2018-04-18T07:22:49.578Z,6.83
2018-04-18T07:25:24.509Z,7.20
2018-04-18T07:28:01.188Z,6.63
2018-04-18T07:30:36.423Z,7.47
2018-04-18T07:33:11.256Z,5.87
2018-04-18T07:35:46.292Z,3.80
2018-04-18T07:38:21.222Z,6.37
2018-04-18T07:40:56.233Z,4.10
2018-04-18T07:43:31.087Z,4.63
2018-04-18T07:46:06.125Z,3.30
2018-04-18T07:48:41.161Z,3.27
2018-04-18T07:51:16.332Z,2.77
2018-04-18T07:53:51.642Z,3.80
2018-04-18T07:56:27.391Z,3.23
2018-04-18T07:59:02.429Z,2.90
2018-04-18T08:01:37.674Z,3.00
2018-04-18T08:04:12.701Z,2.83
2018-04-18T08:06:48.149Z,3.53
2018-04-18T08:09:23.794Z,2.83
2018-04-18T08:11:59.035Z,2.87
2018-04-18T08:14:34.487Z,2.10
2018-04-18T08:17:10.335Z,2.33
2018-04-18T08:19:45.989Z,3.03
2018-04-18T08:22:21.225Z,2.73
2018-04-18T08:24:56.364Z,2.73
2018-04-18T08:27:31.557Z,1.90
2018-04-18T08:30:06.838Z,2.10
2018-04-18T08:32:41.604Z,2.73
2018-04-18T08:35:16.602Z,2.40
2018-04-18T08:37:52.259Z,2.10
2018-04-18T08:40:27.495Z,3.23
2018-04-18T08:43:02.733Z,2.50
2018-04-18T08:45:38.381Z,1.50
2018-04-18T08:48:13.417Z,1.93
2018-04-18T08:50:48.349Z,2.77
2018-04-18T08:53:23.606Z,2.33
2018-04-18T08:55:59.340Z,1.90
2018-04-18T08:58:34.791Z,2.10
2018-04-18T09:01:09.821Z,2.03
2018-04-18T09:03:44.959Z,2.40
2018-04-18T09:06:20.402Z,1.80
2018-04-18T09:08:55.952Z,3.20
2018-04-18T09:11:31.191Z,2.07
2018-04-18T09:14:07.053Z,2.73
2018-04-18T09:16:42.079Z,2.40
2018-04-18T09:19:17.324Z,2.50
2018-04-18T09:21:52.352Z,1.77
2018-04-18T09:24:27.596Z,1.87
2018-04-18T09:27:02.838Z,2.30
2018-04-18T09:29:38.688Z,3.20
2018-04-18T09:32:13.726Z,1.83
2018-04-18T09:34:48.763Z,1.70
2018-04-18T09:37:24.507Z,2.57
2018-04-18T09:39:59.339Z,1.97
2018-04-18T09:42:34.786Z,2.57
2018-04-18T09:45:10.463Z,1.90
2018-04-18T09:47:46.495Z,3.67
2018-04-18T09:50:22.349Z,2.20
2018-04-18T09:52:58.340Z,2.90
2018-04-18T09:55:35.284Z,2.10
2018-04-18T09:58:10.525Z,1.93
2018-04-18T10:00:51.093Z,2.00
2018-04-18T10:03:26.336Z,2.00
2018-04-18T10:06:01.575Z,1.67
2018-04-18T10:08:36.612Z,2.10
2018-04-18T10:11:11.640Z,2.23
2018-04-18T10:13:47.494Z,1.73
2018-04-18T10:16:23.860Z,1.93
2018-04-18T10:18:59.510Z,2.33
2018-04-18T10:21:34.751Z,2.03
2018-04-18T10:24:12.140Z,2.30
2018-04-18T10:26:48.595Z,2.40
2018-04-18T10:29:23.644Z,2.03
2018-04-18T10:31:58.679Z,2.40
2018-04-18T10:34:33.911Z,2.50
2018-04-18T10:37:09.166Z,1.87
2018-04-18T10:39:44.706Z,2.10
2018-04-18T10:42:20.150Z,3.00
2018-04-18T10:44:55.328Z,1.90
2018-04-18T10:47:30.221Z,1.90
2018-04-18T10:50:05.461Z,2.20
2018-04-18T10:52:40.904Z,2.47
2018-04-18T10:55:16.147Z,2.00
2018-04-18T10:57:51.796Z,2.10
2018-04-18T11:00:27.036Z,1.60
2018-04-18T11:03:03.298Z,1.80
2018-04-18T11:05:38.591Z,2.10
2018-04-18T11:08:13.577Z,2.10
2018-04-18T11:10:49.632Z,1.60
2018-04-18T11:13:26.525Z,1.73
2018-04-18T11:16:02.159Z,2.00
2018-04-18T11:18:36.943Z,2.40
2018-04-18T11:21:12.036Z,1.43
2018-04-18T11:23:47.066Z,1.40
2018-04-18T11:26:22.096Z,2.40
2018-04-18T11:28:57.135Z,2.53
2018-04-18T11:31:31.974Z,1.87
2018-04-18T11:34:06.998Z,1.40
2018-04-18T11:36:42.865Z,1.70
2018-04-18T11:39:17.681Z,3.40
2018-04-18T11:41:52.653Z,1.77
2018-04-18T11:44:28.162Z,2.10
2018-04-18T11:47:02.996Z,1.27
2018-04-18T11:49:38.133Z,2.17
2018-04-18T11:52:12.959Z,1.90
2018-04-18T11:54:48.000Z,1.80
2018-04-18T11:57:23.233Z,1.30
2018-04-18T11:59:58.274Z,1.60
2018-04-18T12:02:33.108Z,1.90
2018-04-18T12:05:08.545Z,1.90
2018-04-18T12:07:43.710Z,1.37
2018-04-18T12:10:19.255Z,1.50
2018-04-18T12:12:55.289Z,1.73
2018-04-18T12:15:31.089Z,1.47
2018-04-18T12:18:06.956Z,2.07
2018-04-18T12:20:42.290Z,1.57
2018-04-18T12:23:17.009Z,1.50
2018-04-18T12:25:52.870Z,1.70
2018-04-18T12:28:27.855Z,1.70
2018-04-18T12:31:03.713Z,1.53
2018-04-18T12:33:39.374Z,1.70
2018-04-18T12:36:14.392Z,2.03
2018-04-18T12:38:49.431Z,1.30
2018-04-18T12:41:24.470Z,1.83
2018-04-18T12:43:59.548Z,1.63
2018-04-18T12:46:34.536Z,1.70
2018-04-18T12:49:09.670Z,1.60
2018-04-18T12:51:45.644Z,2.07
2018-04-18T12:54:21.438Z,2.67
2018-04-18T12:56:56.998Z,2.17
2018-04-18T12:59:32.291Z,2.00
2018-04-18T13:02:07.635Z,1.80
2018-04-18T13:04:42.761Z,2.10
2018-04-18T13:07:17.985Z,2.03
2018-04-18T13:09:53.545Z,1.90
2018-04-18T13:12:28.990Z,2.17
2018-04-18T13:15:04.662Z,2.40
2018-04-18T13:17:39.981Z,2.50
2018-04-18T13:20:15.417Z,2.43
2018-04-18T13:22:50.655Z,1.83
2018-04-18T13:25:26.154Z,2.20
2018-04-18T13:28:01.607Z,2.60
2018-04-18T13:30:37.607Z,1.70
2018-04-18T13:33:13.564Z,2.77
2018-04-18T13:35:49.775Z,1.73
2018-04-18T13:38:25.781Z,2.70
2018-04-18T13:41:02.477Z,1.80
2018-04-18T13:43:38.049Z,3.70
2018-04-18T13:46:13.147Z,2.03
2018-04-18T13:48:49.046Z,2.30
2018-04-18T13:51:23.995Z,1.77
2018-04-18T13:54:00.298Z,2.70
2018-04-18T13:56:36.353Z,2.53
2018-04-18T13:59:12.411Z,1.77
2018-04-18T14:01:48.266Z,1.97
2018-04-18T14:04:24.328Z,3.00
2018-04-18T14:06:59.366Z,2.07
2018-04-18T14:09:34.928Z,2.60
2018-04-18T14:12:10.660Z,2.10
2018-04-18T14:14:45.867Z,2.50
2018-04-18T14:17:21.753Z,2.20
2018-04-18T14:19:57.814Z,1.80
2018-04-18T14:22:33.870Z,2.40
2018-04-18T14:25:09.112Z,2.83
2018-04-18T14:27:44.354Z,2.57
2018-04-18T14:30:19.857Z,3.57
2018-04-18T14:32:54.934Z,1.60
2018-04-18T14:35:30.384Z,3.10
2018-04-18T14:38:05.385Z,1.63
2018-04-18T14:40:40.245Z,3.13
2018-04-18T14:43:15.285Z,3.10
2018-04-18T14:45:50.981Z,2.27
2018-04-18T14:48:27.397Z,1.67
2018-04-18T14:51:02.848Z,1.90
2018-04-18T14:53:38.491Z,2.03
2018-04-18T14:56:13.424Z,2.60
2018-04-18T14:58:48.667Z,2.50
2018-04-18T15:01:23.698Z,2.73
2018-04-18T15:03:59.353Z,3.20
2018-04-18T15:06:34.283Z,2.20
2018-04-18T15:09:09.520Z,1.83
2018-04-18T15:11:44.351Z,2.20
2018-04-18T15:14:19.595Z,2.90
2018-04-18T15:16:54.628Z,2.10
2018-04-18T15:19:29.813Z,2.10
2018-04-18T15:22:04.900Z,1.90
2018-04-18T15:24:40.148Z,2.00
2018-04-18T15:27:15.974Z,2.80
2018-04-18T15:29:51.649Z,2.00
2018-04-18T15:32:27.095Z,1.90
2018-04-18T15:35:02.140Z,1.80
2018-04-18T15:37:37.471Z,1.87
2018-04-18T15:40:13.327Z,2.33
2018-04-18T15:42:48.770Z,2.07
2018-04-18T15:45:24.017Z,2.13
2018-04-18T15:47:59.309Z,2.37
2018-04-18T15:50:35.109Z,2.30
2018-04-18T15:53:10.557Z,3.57
2018-04-18T15:55:46.094Z,1.67
2018-04-18T15:58:21.231Z,1.87
2018-04-18T16:00:56.270Z,2.67
2018-04-18T16:03:32.740Z,2.37
2018-04-18T16:06:07.693Z,8.70
2018-04-18T16:08:43.226Z,3.50
2018-04-18T16:11:18.455Z,2.73
2018-04-18T16:13:53.983Z,2.70
2018-04-18T16:16:29.605Z,2.20
2018-04-18T16:19:04.482Z,1.90
2018-04-18T16:21:39.517Z,2.07
2018-04-18T16:24:15.576Z,2.17
2018-04-18T16:26:51.241Z,3.00
2018-04-18T16:29:38.196Z,2.30
2018-04-18T16:32:13.865Z,2.60
2018-04-18T16:34:49.539Z,2.10
2018-04-18T16:37:24.506Z,1.77
2018-04-18T16:39:59.417Z,2.63
2018-04-18T16:42:36.288Z,2.57
2018-04-18T16:45:11.724Z,2.07
2018-04-18T16:47:47.996Z,1.90
2018-04-18T16:50:23.443Z,3.00
2018-04-18T16:52:58.502Z,2.00
2018-04-18T16:55:35.384Z,2.20
2018-04-18T16:58:11.001Z,2.00
2018-04-18T17:00:46.566Z,2.70
2018-04-18T17:03:21.893Z,2.30
2018-04-18T17:05:57.149Z,2.73
2018-04-18T17:08:33.419Z,2.50
2018-04-18T17:11:08.840Z,2.03
2018-04-18T17:13:43.885Z,2.10
2018-04-18T17:16:19.526Z,1.90
2018-04-18T17:18:54.358Z,2.67
2018-04-18T17:21:29.619Z,2.40
2018-04-18T17:24:04.643Z,2.10
2018-04-18T17:26:39.974Z,2.17
2018-04-18T17:29:16.417Z,3.67
2018-04-18T17:31:52.193Z,7.27
2018-04-18T17:34:28.061Z,2.33
2018-04-18T17:37:06.604Z,1.87
2018-04-18T17:39:42.109Z,1.80
2018-04-18T17:42:17.517Z,2.40
2018-04-18T17:44:52.540Z,2.50
2018-04-18T17:47:28.037Z,2.70
2018-04-18T17:50:03.695Z,2.47
2018-04-18T17:52:38.725Z,2.00
2018-04-18T17:55:13.966Z,2.53
2018-04-18T17:57:49.416Z,2.30
2018-04-18T18:00:24.656Z,2.20
2018-04-18T18:02:59.683Z,2.00
2018-04-18T18:05:34.539Z,2.10
2018-04-18T18:08:09.551Z,2.77
2018-04-18T18:10:44.895Z,1.90
2018-04-18T18:13:20.129Z,3.50
2018-04-18T18:15:55.729Z,2.10
2018-04-18T18:18:31.533Z,2.30
2018-04-18T18:21:06.774Z,2.70
2018-04-18T18:23:41.989Z,3.23
2018-04-18T18:26:17.864Z,3.83
2018-04-18T18:28:52.900Z,2.60
2018-04-18T18:31:27.937Z,2.83
2018-04-18T18:34:02.907Z,3.10
2018-04-18T18:36:39.744Z,4.30
2018-04-18T18:39:14.778Z,2.87
2018-04-18T18:41:50.075Z,2.83
2018-04-18T18:44:25.055Z,2.47
2018-04-18T18:47:00.089Z,3.57
2018-04-18T18:49:35.741Z,2.73
2018-04-18T18:52:10.976Z,3.47
2018-04-18T18:54:47.650Z,3.13
2018-04-18T18:57:24.120Z,3.17
2018-04-18T18:59:59.088Z,2.90
2018-04-18T19:02:35.931Z,3.50
2018-04-18T19:05:11.170Z,2.80
2018-04-18T19:07:46.208Z,2.83
2018-04-18T19:10:21.663Z,3.67
2018-04-18T19:12:57.306Z,4.27
2018-04-18T19:15:33.841Z,3.47
2018-04-18T19:18:09.399Z,5.10
2018-04-18T19:20:44.763Z,3.23
2018-04-18T19:23:20.416Z,2.60
2018-04-18T19:25:56.859Z,4.77
2018-04-18T19:28:36.777Z,4.73
2018-04-18T19:31:11.968Z,4.17
2018-04-18T19:33:47.414Z,3.60
2018-04-18T19:36:23.679Z,4.60
2018-04-18T19:38:59.329Z,3.30
2018-04-18T19:41:34.480Z,3.20
2018-04-18T19:44:09.498Z,4.53
2018-04-18T19:46:44.945Z,3.70
2018-04-18T19:49:20.545Z,4.70
2018-04-18T19:51:56.036Z,4.43
2018-04-18T19:54:30.867Z,4.90
2018-04-18T19:57:05.861Z,4.43
2018-04-18T19:59:41.082Z,5.23
2018-04-18T20:02:15.983Z,4.00
2018-04-18T20:04:51.419Z,4.33
2018-04-18T20:07:26.451Z,4.30
2018-04-18T20:10:02.307Z,5.60
2018-04-18T20:12:37.349Z,5.10
2018-04-18T20:15:12.380Z,3.60
2018-04-18T20:17:47.652Z,4.53
2018-04-18T20:20:22.655Z,3.63
2018-04-18T20:22:58.033Z,3.93
2018-04-18T20:25:33.706Z,3.50
2018-04-18T20:28:09.471Z,3.40
2018-04-18T20:30:45.456Z,3.50
2018-04-18T20:33:20.291Z,4.07
2018-04-18T20:35:55.513Z,3.17
2018-04-18T20:38:30.630Z,3.20
2018-04-18T20:41:05.494Z,3.40
2018-04-18T20:43:40.325Z,2.87
2018-04-18T20:46:14.949Z,3.17
2018-04-18T20:48:50.187Z,2.73
2018-04-18T20:51:26.253Z,3.10
2018-04-18T20:54:01.896Z,4.53
2018-04-18T20:56:38.571Z,3.33
2018-04-18T20:59:13.809Z,3.30
2018-04-18T21:01:48.851Z,3.37
2018-04-18T21:04:23.879Z,2.93
2018-04-18T21:06:59.539Z,4.00
2018-04-18T21:09:35.384Z,3.60
2018-04-18T21:12:10.213Z,3.80
2018-04-18T21:14:45.045Z,4.20
2018-04-18T21:17:20.700Z,3.87
2018-04-18T21:19:56.654Z,3.77
2018-04-18T21:22:32.284Z,3.77
2018-04-18T21:25:07.356Z,3.73
2018-04-18T21:27:43.004Z,3.40
2018-04-18T21:30:18.431Z,2.97
2018-04-18T21:32:53.197Z,3.47
2018-04-18T21:38:09.885Z,2.23
2018-04-18T21:40:45.411Z,4.90
2018-04-18T21:43:20.879Z,2.83
2018-04-18T21:45:56.732Z,3.30
2018-04-18T21:48:32.892Z,3.47
2018-04-18T21:51:08.337Z,5.50
2018-04-18T21:53:43.995Z,4.93
2018-04-18T21:58:59.530Z,3.10
2018-04-18T22:01:34.831Z,3.33
2018-04-18T22:04:10.477Z,2.83
2018-04-18T22:06:45.816Z,4.43
2018-04-18T22:09:20.851Z,3.77
2018-04-18T22:11:56.094Z,5.07
2018-04-18T22:14:30.966Z,4.00
2018-04-18T22:17:07.749Z,4.50
2018-04-18T22:19:43.982Z,5.83
2018-04-18T22:22:19.767Z,2.77
2018-04-18T22:24:55.116Z,3.60
2018-04-18T22:27:31.727Z,3.23
2018-04-18T22:30:07.380Z,3.27
2018-04-18T22:32:42.855Z,3.47
2018-04-18T22:35:17.863Z,3.80
2018-04-18T22:37:53.417Z,3.53
2018-04-18T22:40:29.567Z,3.07
2018-04-18T22:43:06.446Z,4.10
2018-04-18T22:45:41.278Z,3.80
2018-04-18T22:48:17.539Z,3.73
2018-04-18T22:50:52.578Z,3.33
2018-04-18T22:53:28.437Z,2.80
2018-04-18T22:56:03.679Z,3.40
2018-04-18T22:58:39.526Z,3.77
2018-04-18T23:01:14.360Z,4.13
2018-04-18T23:03:49.392Z,3.80
2018-04-18T23:06:24.223Z,3.63
2018-04-18T23:08:59.054Z,4.07
2018-04-18T23:11:34.089Z,4.03
2018-04-18T23:14:09.333Z,3.93
2018-04-18T23:16:44.365Z,4.60
2018-04-18T23:19:19.196Z,3.80
2018-04-18T23:21:54.232Z,5.70
2018-04-18T23:24:29.465Z,4.23
2018-04-18T23:27:04.302Z,3.70
2018-04-18T23:29:39.546Z,3.50
2018-04-18T23:32:14.572Z,3.30
2018-04-18T23:34:49.809Z,3.60
2018-04-18T23:37:24.435Z,3.43
2018-04-18T23:39:59.677Z,4.50
2018-04-18T23:42:34.513Z,3.27
2018-04-18T23:45:09.543Z,4.23
2018-04-18T23:47:44.581Z,3.40
2018-04-18T23:50:19.611Z,3.97
2018-04-18T23:52:55.771Z,3.60
2018-04-18T23:55:31.017Z,3.90
2018-04-18T23:58:06.456Z,3.47
